sensor_id;sensor_type;location;lat;lon;timestamp;pressure;altitude;pressure_sealevel;temperature;humidity
76195;BME280;64964;48.694;21.206;2023-04-01T00:00:56;96409.44;;;8.57;82.13
76195;BME280;64964;48.694;21.206;2023-04-01T00:03:23;96410.56;;;8.41;83.15
76195;BME280;64964;48.694;21.206;2023-04-01T00:05:49;96401.56;;;8.29;83.77
76195;BME280;64964;48.694;21.206;2023-04-01T00:08:15;96408.44;;;8.30;83.50
76195;BME280;64964;48.694;21.206;2023-04-01T00:10:42;96394.53;;;8.08;84.76
76195;BME280;64964;48.694;21.206;2023-04-01T00:13:07;96387.63;;;8.01;85.11
76195;BME280;64964;48.694;21.206;2023-04-01T00:15:32;96387.66;;;7.79;86.06
76195;BME280;64964;48.694;21.206;2023-04-01T00:17:58;96387.88;;;7.78;86.19
76195;BME280;64964;48.694;21.206;2023-04-01T00:20:24;96384.22;;;7.79;86.30
76195;BME280;64964;48.694;21.206;2023-04-01T00:22:50;96376.66;;;7.69;86.73
76195;BME280;64964;48.694;21.206;2023-04-01T00:25:15;96391.25;;;7.71;86.11
76195;BME280;64964;48.694;21.206;2023-04-01T00:27:41;96380.34;;;7.74;85.95
76195;BME280;64964;48.694;21.206;2023-04-01T00:30:07;96386.28;;;7.83;84.60
76195;BME280;64964;48.694;21.206;2023-04-01T00:32:33;96392.22;;;7.92;84.16
76195;BME280;64964;48.694;21.206;2023-04-01T00:34:58;96393.69;;;8.01;83.61
76195;BME280;64964;48.694;21.206;2023-04-01T00:37:27;96386.00;;;8.06;83.00
76195;BME280;64964;48.694;21.206;2023-04-01T00:39:53;96379.78;;;8.14;82.86
76195;BME280;64964;48.694;21.206;2023-04-01T00:42:19;96375.59;;;8.19;82.58
76195;BME280;64964;48.694;21.206;2023-04-01T00:44:54;96381.25;;;8.23;83.13
76195;BME280;64964;48.694;21.206;2023-04-01T00:47:21;96374.41;;;8.29;82.83
76195;BME280;64964;48.694;21.206;2023-04-01T00:49:50;96374.44;;;8.35;82.18
76195;BME280;64964;48.694;21.206;2023-04-01T00:52:22;96369.63;;;8.39;81.99
76195;BME280;64964;48.694;21.206;2023-04-01T00:54:54;96367.41;;;8.42;81.85
76195;BME280;64964;48.694;21.206;2023-04-01T00:57:30;96359.50;;;8.42;82.55
76195;BME280;64964;48.694;21.206;2023-04-01T00:59:57;96355.94;;;8.22;84.01
76195;BME280;64964;48.694;21.206;2023-04-01T01:02:23;96353.66;;;8.12;84.10
76195;BME280;64964;48.694;21.206;2023-04-01T01:04:48;96350.16;;;7.98;85.04
76195;BME280;64964;48.694;21.206;2023-04-01T01:15:27;96359.16;;;8.17;82.61
76195;BME280;64964;48.694;21.206;2023-04-01T01:26:36;96353.34;;;8.29;83.01
76195;BME280;64964;48.694;21.206;2023-04-01T01:37:40;96361.94;;;8.37;81.70
76195;BME280;64964;48.694;21.206;2023-04-01T01:40:10;96360.28;;;8.36;81.87
76195;BME280;64964;48.694;21.206;2023-04-01T01:42:39;96356.81;;;8.36;81.76
76195;BME280;64964;48.694;21.206;2023-04-01T01:45:06;96361.94;;;8.37;82.37
76195;BME280;64964;48.694;21.206;2023-04-01T01:47:34;96360.53;;;8.41;82.00
76195;BME280;64964;48.694;21.206;2023-04-01T01:50:01;96369.84;;;8.44;82.42
76195;BME280;64964;48.694;21.206;2023-04-01T01:52:28;96366.59;;;8.42;83.76
76195;BME280;64964;48.694;21.206;2023-04-01T01:54:55;96365.97;;;8.40;84.13
76195;BME280;64964;48.694;21.206;2023-04-01T01:57:36;96361.75;;;8.45;83.23
76195;BME280;64964;48.694;21.206;2023-04-01T02:00:07;96363.38;;;8.46;83.39
76195;BME280;64964;48.694;21.206;2023-04-01T02:02:40;96362.78;;;8.51;82.52
76195;BME280;64964;48.694;21.206;2023-04-01T02:05:09;96355.69;;;8.52;82.79
76195;BME280;64964;48.694;21.206;2023-04-01T02:07:36;96360.97;;;8.52;83.12
76195;BME280;64964;48.694;21.206;2023-04-01T02:10:04;96354.88;;;8.51;83.61
76195;BME280;64964;48.694;21.206;2023-04-01T02:12:30;96350.25;;;8.53;82.56
76195;BME280;64964;48.694;21.206;2023-04-01T02:15:04;96346.56;;;8.47;84.31
76195;BME280;64964;48.694;21.206;2023-04-01T02:17:32;96350.00;;;8.48;83.67
76195;BME280;64964;48.694;21.206;2023-04-01T02:20:02;96346.78;;;8.46;84.13
76195;BME280;64964;48.694;21.206;2023-04-01T02:22:32;96350.84;;;8.48;83.43
76195;BME280;64964;48.694;21.206;2023-04-01T02:25:03;96363.41;;;8.53;82.94
76195;BME280;64964;48.694;21.206;2023-04-01T02:27:30;96358.31;;;8.52;83.67
76195;BME280;64964;48.694;21.206;2023-04-01T02:29:56;96358.75;;;8.55;82.86
76195;BME280;64964;48.694;21.206;2023-04-01T02:32:23;96359.56;;;8.56;82.89
76195;BME280;64964;48.694;21.206;2023-04-01T02:34:50;96365.03;;;8.54;82.78
76195;BME280;64964;48.694;21.206;2023-04-01T02:37:16;96369.72;;;8.59;82.88
76195;BME280;64964;48.694;21.206;2023-04-01T02:39:41;96361.81;;;8.59;83.00
76195;BME280;64964;48.694;21.206;2023-04-01T02:42:08;96359.13;;;8.52;84.09
76195;BME280;64964;48.694;21.206;2023-04-01T02:44:33;96362.78;;;8.51;83.93
76195;BME280;64964;48.694;21.206;2023-04-01T02:46:59;96358.53;;;8.50;83.60
76195;BME280;64964;48.694;21.206;2023-04-01T02:49:24;96355.69;;;8.52;83.35
76195;BME280;64964;48.694;21.206;2023-04-01T02:51:50;96367.66;;;8.54;82.94
76195;BME280;64964;48.694;21.206;2023-04-01T02:54:17;96359.38;;;8.57;82.66
76195;BME280;64964;48.694;21.206;2023-04-01T02:56:42;96374.19;;;8.58;82.93
76195;BME280;64964;48.694;21.206;2023-04-01T02:59:08;96366.88;;;8.54;83.46
76195;BME280;64964;48.694;21.206;2023-04-01T03:01:33;96374.13;;;8.52;83.07
76195;BME280;64964;48.694;21.206;2023-04-01T03:03:58;96384.25;;;8.48;83.35
76195;BME280;64964;48.694;21.206;2023-04-01T03:06:24;96383.44;;;8.47;82.74
76195;BME280;64964;48.694;21.206;2023-04-01T03:08:50;96386.06;;;8.47;82.96
76195;BME280;64964;48.694;21.206;2023-04-01T03:11:15;96382.44;;;8.48;83.07
76195;BME280;64964;48.694;21.206;2023-04-01T03:13:40;96379.19;;;8.46;83.15
76195;BME280;64964;48.694;21.206;2023-04-01T03:16:06;96374.34;;;8.50;82.71
76195;BME280;64964;48.694;21.206;2023-04-01T03:18:32;96378.38;;;8.53;82.42
76195;BME280;64964;48.694;21.206;2023-04-01T03:21:12;96374.75;;;8.54;82.65
76195;BME280;64964;48.694;21.206;2023-04-01T03:23:37;96372.56;;;8.57;82.27
76195;BME280;64964;48.694;21.206;2023-04-01T03:26:02;96370.31;;;8.54;83.33
76195;BME280;64964;48.694;21.206;2023-04-01T03:28:28;96375.56;;;8.54;83.01
76195;BME280;64964;48.694;21.206;2023-04-01T03:30:53;96383.69;;;8.59;82.27
76195;BME280;64964;48.694;21.206;2023-04-01T03:33:18;96385.13;;;8.62;81.99
76195;BME280;64964;48.694;21.206;2023-04-01T03:35:44;96386.38;;;8.66;81.87
76195;BME280;64964;48.694;21.206;2023-04-01T03:38:09;96378.03;;;8.69;81.71
76195;BME280;64964;48.694;21.206;2023-04-01T03:40:35;96380.28;;;8.72;81.86
76195;BME280;64964;48.694;21.206;2023-04-01T03:43:03;96377.28;;;8.75;81.44
76195;BME280;64964;48.694;21.206;2023-04-01T03:45:31;96372.44;;;8.79;81.38
76195;BME280;64964;48.694;21.206;2023-04-01T03:47:57;96375.88;;;8.79;81.26
76195;BME280;64964;48.694;21.206;2023-04-01T03:50:22;96374.03;;;8.80;81.31
76195;BME280;64964;48.694;21.206;2023-04-01T03:52:48;96375.47;;;8.82;81.30
76195;BME280;64964;48.694;21.206;2023-04-01T03:55:13;96379.72;;;8.83;81.30
76195;BME280;64964;48.694;21.206;2023-04-01T03:57:38;96378.50;;;8.86;81.37
76195;BME280;64964;48.694;21.206;2023-04-01T04:00:04;96387.44;;;8.85;81.31
76195;BME280;64964;48.694;21.206;2023-04-01T04:02:30;96382.34;;;8.77;82.26
76195;BME280;64964;48.694;21.206;2023-04-01T04:04:55;96392.06;;;8.76;81.96
76195;BME280;64964;48.694;21.206;2023-04-01T04:07:20;96381.53;;;8.69;82.40
76195;BME280;64964;48.694;21.206;2023-04-01T04:09:46;96394.28;;;8.72;82.12
76195;BME280;64964;48.694;21.206;2023-04-01T04:12:12;96393.03;;;8.68;82.30
76195;BME280;64964;48.694;21.206;2023-04-01T04:14:37;96396.09;;;8.72;81.92
76195;BME280;64964;48.694;21.206;2023-04-01T04:17:03;96402.00;;;8.74;82.18
76195;BME280;64964;48.694;21.206;2023-04-01T04:19:32;96395.50;;;8.77;81.71
76195;BME280;64964;48.694;21.206;2023-04-01T04:21:58;96395.94;;;8.80;81.53
76195;BME280;64964;48.694;21.206;2023-04-01T04:24:26;96399.38;;;8.81;81.77
76195;BME280;64964;48.694;21.206;2023-04-01T04:26:52;96394.72;;;8.83;81.69
76195;BME280;64964;48.694;21.206;2023-04-01T04:29:18;96400.59;;;8.85;81.37
76195;BME280;64964;48.694;21.206;2023-04-01T04:31:43;96404.06;;;8.85;81.29
76195;BME280;64964;48.694;21.206;2023-04-01T04:34:08;96403.88;;;8.87;81.39
76195;BME280;64964;48.694;21.206;2023-04-01T04:36:34;96401.84;;;8.89;81.23
76195;BME280;64964;48.694;21.206;2023-04-01T04:38:59;96402.84;;;8.88;81.33
76195;BME280;64964;48.694;21.206;2023-04-01T04:41:27;96403.44;;;8.90;81.28
76195;BME280;64964;48.694;21.206;2023-04-01T04:43:54;96410.75;;;8.88;81.38
76195;BME280;64964;48.694;21.206;2023-04-01T04:46:20;96404.28;;;8.90;80.86
76195;BME280;64964;48.694;21.206;2023-04-01T04:48:46;96404.28;;;8.90;80.78
76195;BME280;64964;48.694;21.206;2023-04-01T04:51:14;96410.38;;;8.91;80.73
76195;BME280;64964;48.694;21.206;2023-04-01T04:53:40;96412.78;;;8.92;81.04
76195;BME280;64964;48.694;21.206;2023-04-01T04:56:06;96411.78;;;8.93;80.96
76195;BME280;64964;48.694;21.206;2023-04-01T04:58:31;96406.72;;;8.92;80.87
76195;BME280;64964;48.694;21.206;2023-04-01T05:00:57;96413.59;;;8.93;81.03
76195;BME280;64964;48.694;21.206;2023-04-01T05:03:22;96405.69;;;8.93;80.91
76195;BME280;64964;48.694;21.206;2023-04-01T05:05:49;96412.00;;;8.92;80.97
76195;BME280;64964;48.694;21.206;2023-04-01T05:08:16;96416.44;;;8.91;80.74
76195;BME280;64964;48.694;21.206;2023-04-01T05:10:41;96417.25;;;8.92;80.89
76195;BME280;64964;48.694;21.206;2023-04-01T05:13:06;96415.66;;;8.91;81.16
76195;BME280;64964;48.694;21.206;2023-04-01T05:15:32;96415.66;;;8.91;80.97
76195;BME280;64964;48.694;21.206;2023-04-01T05:17:57;96417.47;;;8.90;81.04
76195;BME280;64964;48.694;21.206;2023-04-01T05:20:22;96412.19;;;8.90;81.21
76195;BME280;64964;48.694;21.206;2023-04-01T05:22:48;96417.66;;;8.89;81.32
76195;BME280;64964;48.694;21.206;2023-04-01T05:25:13;96424.91;;;8.80;82.61
76195;BME280;64964;48.694;21.206;2023-04-01T05:27:38;96417.44;;;8.84;81.26
76195;BME280;64964;48.694;21.206;2023-04-01T05:30:05;96419.84;;;8.85;81.61
76195;BME280;64964;48.694;21.206;2023-04-01T05:32:31;96421.09;;;8.83;81.75
76195;BME280;64964;48.694;21.206;2023-04-01T05:34:56;96423.31;;;8.86;81.53
76195;BME280;64964;48.694;21.206;2023-04-01T05:37:21;96424.31;;;8.85;81.22
76195;BME280;64964;48.694;21.206;2023-04-01T05:39:48;96424.31;;;8.85;81.60
76195;BME280;64964;48.694;21.206;2023-04-01T05:42:13;96424.94;;;8.87;81.49
76195;BME280;64964;48.694;21.206;2023-04-01T05:44:39;96423.13;;;8.87;81.79
76195;BME280;64964;48.694;21.206;2023-04-01T05:47:04;96421.09;;;8.89;81.95
76195;BME280;64964;48.694;21.206;2023-04-01T05:49:30;96409.75;;;8.89;81.84
76195;BME280;64964;48.694;21.206;2023-04-01T05:51:56;96410.53;;;8.89;82.46
76195;BME280;64964;48.694;21.206;2023-04-01T05:54:21;96416.25;;;8.93;81.70
76195;BME280;64964;48.694;21.206;2023-04-01T05:56:46;96426.41;;;8.96;81.64
76195;BME280;64964;48.694;21.206;2023-04-01T05:59:12;96421.72;;;8.98;82.19
76195;BME280;64964;48.694;21.206;2023-04-01T06:01:38;96425.00;;;9.00;82.28
76195;BME280;64964;48.694;21.206;2023-04-01T06:04:04;96433.75;;;9.07;82.07
76195;BME280;64964;48.694;21.206;2023-04-01T06:06:30;96431.31;;;9.12;82.10
76195;BME280;64964;48.694;21.206;2023-04-01T06:09:10;96433.94;;;9.19;82.01
76195;BME280;64964;48.694;21.206;2023-04-01T06:20:03;96425.25;;;9.32;82.39
76195;BME280;64964;48.694;21.206;2023-04-01T06:30:57;96423.25;;;9.47;81.44
76195;BME280;64964;48.694;21.206;2023-04-01T06:33:32;96428.75;;;9.52;81.07
76195;BME280;64964;48.694;21.206;2023-04-01T06:36:18;96434.81;;;9.53;81.10
76195;BME280;64964;48.694;21.206;2023-04-01T06:46:47;96445.63;;;9.58;80.42
76195;BME280;64964;48.694;21.206;2023-04-01T06:52:09;96437.69;;;9.58;80.35
76195;BME280;64964;48.694;21.206;2023-04-01T06:54:42;96448.25;;;9.58;80.18
76195;BME280;64964;48.694;21.206;2023-04-01T06:59:43;96438.50;;;9.58;80.48
76195;BME280;64964;48.694;21.206;2023-04-01T07:04:41;96444.19;;;9.55;80.78
76195;BME280;64964;48.694;21.206;2023-04-01T07:07:21;96435.88;;;9.58;80.92
76195;BME280;64964;48.694;21.206;2023-04-01T07:09:51;96439.09;;;9.60;80.55
76195;BME280;64964;48.694;21.206;2023-04-01T07:15:15;96439.72;;;9.62;80.78
76195;BME280;64964;48.694;21.206;2023-04-01T07:17:43;96432.00;;;9.67;80.34
76195;BME280;64964;48.694;21.206;2023-04-01T07:20:29;96430.59;;;9.71;80.45
76195;BME280;64964;48.694;21.206;2023-04-01T07:22:58;96433.44;;;9.77;80.08
76195;BME280;64964;48.694;21.206;2023-04-01T07:25:30;96435.03;;;9.78;80.34
76195;BME280;64964;48.694;21.206;2023-04-01T07:28:20;96433.63;;;9.82;80.29
76195;BME280;64964;48.694;21.206;2023-04-01T07:31:25;96432.22;;;9.79;81.02
76195;BME280;64964;48.694;21.206;2023-04-01T07:48:00;96438.69;;;10.03;80.32
76195;BME280;64964;48.694;21.206;2023-04-01T07:50:31;96431.19;;;10.07;79.53
76195;BME280;64964;48.694;21.206;2023-04-01T07:55:48;96445.00;;;10.09;79.36
76195;BME280;64964;48.694;21.206;2023-04-01T07:58:24;96443.19;;;10.09;79.46
76195;BME280;64964;48.694;21.206;2023-04-01T08:06:33;96456.38;;;10.16;79.45
76195;BME280;64964;48.694;21.206;2023-04-01T08:12:04;96463.69;;;10.20;78.77
76195;BME280;64964;48.694;21.206;2023-04-01T08:17:20;96468.16;;;10.20;78.41
76195;BME280;64964;48.694;21.206;2023-04-01T08:22:42;96480.78;;;10.25;78.48
76195;BME280;64964;48.694;21.206;2023-04-01T08:25:22;96473.81;;;10.23;78.62
76195;BME280;64964;48.694;21.206;2023-04-01T08:28:01;96469.56;;;10.22;78.47
76195;BME280;64964;48.694;21.206;2023-04-01T08:30:41;96466.34;;;10.20;78.65
76195;BME280;64964;48.694;21.206;2023-04-01T08:33:20;96473.66;;;10.25;78.71
76195;BME280;64964;48.694;21.206;2023-04-01T08:35:51;96473.84;;;10.30;79.17
76195;BME280;64964;48.694;21.206;2023-04-01T08:38:24;96467.97;;;10.35;78.84
76195;BME280;64964;48.694;21.206;2023-04-01T08:41:09;96468.94;;;10.40;78.80
76195;BME280;64964;48.694;21.206;2023-04-01T08:51:48;96459.59;;;10.58;77.58
76195;BME280;64964;48.694;21.206;2023-04-01T08:57:15;96466.88;;;10.69;77.60
76195;BME280;64964;48.694;21.206;2023-04-01T08:59:57;96461.75;;;10.74;77.09
76195;BME280;64964;48.694;21.206;2023-04-01T09:06:12;96465.66;;;10.65;77.38
76195;BME280;64964;48.694;21.206;2023-04-01T09:19:21;96459.97;;;10.75;77.73
76195;BME280;64964;48.694;21.206;2023-04-01T09:27:57;96441.03;;;11.22;78.08
76195;BME280;64964;48.694;21.206;2023-04-01T09:35:47;96450.75;;;12.42;76.94
76195;BME280;64964;48.694;21.206;2023-04-01T10:22:50;96460.78;;;14.62;62.50
76195;BME280;64964;48.694;21.206;2023-04-01T10:34:05;96464.03;;;15.16;61.08
76195;BME280;64964;48.694;21.206;2023-04-01T10:36:57;96464.06;;;15.05;60.81
76195;BME280;64964;48.694;21.206;2023-04-01T10:42:26;96454.88;;;15.53;60.01
76195;BME280;64964;48.694;21.206;2023-04-01T11:01:32;96446.72;;;16.22;54.78
76195;BME280;64964;48.694;21.206;2023-04-01T11:07:01;96432.03;;;15.85;56.61
76195;BME280;64964;48.694;21.206;2023-04-01T11:12:26;96425.06;;;15.39;55.36
76195;BME280;64964;48.694;21.206;2023-04-01T11:17:52;96429.22;;;15.18;57.41
76195;BME280;64964;48.694;21.206;2023-04-01T11:33:58;96420.25;;;15.98;50.80
76195;BME280;64964;48.694;21.206;2023-04-01T11:36:37;96417.34;;;16.00;52.02
76195;BME280;64964;48.694;21.206;2023-04-01T11:42:06;96427.16;;;15.65;52.82
76195;BME280;64964;48.694;21.206;2023-04-01T11:44:39;96422.50;;;15.15;54.39
76195;BME280;64964;48.694;21.206;2023-04-01T11:53:05;96419.28;;;14.50;58.30
76195;BME280;64964;48.694;21.206;2023-04-01T11:56:07;96418.34;;;14.44;58.62
76195;BME280;64964;48.694;21.206;2023-04-01T12:18:00;96417.53;;;13.85;59.74
76195;BME280;64964;48.694;21.206;2023-04-01T12:20:51;96417.94;;;13.70;59.61
76195;BME280;64964;48.694;21.206;2023-04-01T12:31:27;96416.38;;;13.39;61.65
76195;BME280;64964;48.694;21.206;2023-04-01T12:42:47;96429.50;;;13.87;60.23
76195;BME280;64964;48.694;21.206;2023-04-01T12:56:02;96428.97;;;14.44;55.06
76195;BME280;64964;48.694;21.206;2023-04-01T12:58:38;96430.47;;;14.40;55.57
76195;BME280;64964;48.694;21.206;2023-04-01T13:01:34;96435.81;;;14.40;55.38
76195;BME280;64964;48.694;21.206;2023-04-01T13:31:38;96431.47;;;14.98;55.40
76195;BME280;64964;48.694;21.206;2023-04-01T13:34:39;96429.28;;;14.94;54.93
76195;BME280;64964;48.694;21.206;2023-04-01T13:37:15;96430.88;;;14.95;54.29
76195;BME280;64964;48.694;21.206;2023-04-01T13:40:13;96434.84;;;14.93;53.66
76195;BME280;64964;48.694;21.206;2023-04-01T13:42:58;96436.38;;;14.77;53.45
76195;BME280;64964;48.694;21.206;2023-04-01T13:48:50;96438.94;;;14.60;55.81
76195;BME280;64964;48.694;21.206;2023-04-01T13:54:25;96440.44;;;14.68;56.50
76195;BME280;64964;48.694;21.206;2023-04-01T14:05:47;96447.91;;;14.83;55.45
76195;BME280;64964;48.694;21.206;2023-04-01T14:08:34;96449.06;;;14.87;56.09
76195;BME280;64964;48.694;21.206;2023-04-01T14:30:20;96450.97;;;14.51;57.19
76195;BME280;64964;48.694;21.206;2023-04-01T14:38:38;96448.16;;;14.46;57.05
76195;BME280;64964;48.694;21.206;2023-04-01T14:49:30;96458.00;;;14.45;57.78
76195;BME280;64964;48.694;21.206;2023-04-01T14:52:38;96457.63;;;14.42;57.64
76195;BME280;64964;48.694;21.206;2023-04-01T14:54:56;96462.75;;;14.43;57.91
76195;BME280;64964;48.694;21.206;2023-04-01T14:57:28;96460.53;;;14.40;57.81
76195;BME280;64964;48.694;21.206;2023-04-01T15:02:45;96459.38;;;14.36;57.37
76195;BME280;64964;48.694;21.206;2023-04-01T15:05:38;96459.72;;;14.16;56.25
76195;BME280;64964;48.694;21.206;2023-04-01T15:08:27;96461.91;;;14.19;58.22
76195;BME280;64964;48.694;21.206;2023-04-01T15:11:10;96455.19;;;14.17;58.53
76195;BME280;64964;48.694;21.206;2023-04-01T15:23:56;96464.44;;;14.03;59.24
76195;BME280;64964;48.694;21.206;2023-04-01T15:31:59;96471.13;;;13.93;58.89
76195;BME280;64964;48.694;21.206;2023-04-01T15:34:34;96472.13;;;13.81;59.04
76195;BME280;64964;48.694;21.206;2023-04-01T15:37:33;96471.88;;;13.70;59.13
76195;BME280;64964;48.694;21.206;2023-04-01T15:40:03;96486.31;;;13.63;59.71
76195;BME280;64964;48.694;21.206;2023-04-01T15:45:24;96491.75;;;13.38;59.64
76195;BME280;64964;48.694;21.206;2023-04-01T15:48:17;96494.53;;;13.25;59.93
76195;BME280;64964;48.694;21.206;2023-04-01T15:59:41;96492.38;;;13.15;62.17
76195;BME280;64964;48.694;21.206;2023-04-01T16:02:20;96502.25;;;13.08;63.50
76195;BME280;64964;48.694;21.206;2023-04-01T16:04:55;96495.06;;;12.96;63.49
76195;BME280;64964;48.694;21.206;2023-04-01T16:13:58;96497.16;;;12.69;66.74
76195;BME280;64964;48.694;21.206;2023-04-01T16:16:31;96496.22;;;12.64;66.12
76195;BME280;64964;48.694;21.206;2023-04-01T16:22:06;96499.97;;;12.56;65.74
76195;BME280;64964;48.694;21.206;2023-04-01T16:27:19;96504.97;;;12.46;65.61
76195;BME280;64964;48.694;21.206;2023-04-01T16:29:56;96501.59;;;12.32;66.14
76195;BME280;64964;48.694;21.206;2023-04-01T16:32:50;96508.84;;;12.18;66.96
76195;BME280;64964;48.694;21.206;2023-04-01T16:36:07;96509.53;;;12.07;67.21
76195;BME280;64964;48.694;21.206;2023-04-01T16:38:37;96505.38;;;11.93;67.38
76195;BME280;64964;48.694;21.206;2023-04-01T16:43:51;96521.75;;;11.77;67.51
76195;BME280;64964;48.694;21.206;2023-04-01T16:59:48;96537.75;;;11.05;67.31
76195;BME280;64964;48.694;21.206;2023-04-01T17:02:28;96533.09;;;11.01;67.13
76195;BME280;64964;48.694;21.206;2023-04-01T17:05:07;96548.78;;;10.95;66.98
76195;BME280;64964;48.694;21.206;2023-04-01T17:07:48;96546.34;;;10.87;68.39
76195;BME280;64964;48.694;21.206;2023-04-01T17:13:18;96558.75;;;10.80;68.33
76195;BME280;64964;48.694;21.206;2023-04-01T17:21:27;96572.59;;;10.69;69.00
76195;BME280;64964;48.694;21.206;2023-04-01T17:26:48;96581.34;;;10.63;70.16
76195;BME280;64964;48.694;21.206;2023-04-01T17:29:19;96580.53;;;10.62;68.51
76195;BME280;64964;48.694;21.206;2023-04-01T17:35:18;96585.81;;;10.56;70.26
76195;BME280;64964;48.694;21.206;2023-04-01T17:37:39;96598.22;;;10.55;69.50
76195;BME280;64964;48.694;21.206;2023-04-01T17:40:25;96600.84;;;10.48;70.54
76195;BME280;64964;48.694;21.206;2023-04-01T17:43:10;96606.13;;;10.48;69.77
76195;BME280;64964;48.694;21.206;2023-04-01T17:45:45;96610.00;;;10.46;70.28
76195;BME280;64964;48.694;21.206;2023-04-01T17:52:03;96629.31;;;10.40;72.50
76195;BME280;64964;48.694;21.206;2023-04-01T17:54:23;96632.75;;;10.40;71.45
76195;BME280;64964;48.694;21.206;2023-04-01T17:59:52;96640.50;;;10.42;70.31
76195;BME280;64964;48.694;21.206;2023-04-01T18:08:17;96637.03;;;10.41;69.37
76195;BME280;64964;48.694;21.206;2023-04-01T18:23:58;96653.72;;;10.62;68.07
76195;BME280;64964;48.694;21.206;2023-04-01T18:26:34;96654.31;;;10.64;67.60
76195;BME280;64964;48.694;21.206;2023-04-01T18:29:23;96656.16;;;10.63;67.21
76195;BME280;64964;48.694;21.206;2023-04-01T18:31:55;96656.56;;;10.67;67.04
76195;BME280;64964;48.694;21.206;2023-04-01T18:34:53;96659.41;;;10.65;66.63
76195;BME280;64964;48.694;21.206;2023-04-01T18:37:37;96662.03;;;10.65;67.51
76195;BME280;64964;48.694;21.206;2023-04-01T18:40:36;96663.28;;;10.63;67.75
76195;BME280;64964;48.694;21.206;2023-04-01T18:43:14;96659.41;;;10.59;67.32
76195;BME280;64964;48.694;21.206;2023-04-01T18:45:51;96665.50;;;10.53;67.25
76195;BME280;64964;48.694;21.206;2023-04-01T18:49:00;96662.66;;;10.47;67.73
76195;BME280;64964;48.694;21.206;2023-04-01T18:51:45;96659.00;;;10.42;67.80
76195;BME280;64964;48.694;21.206;2023-04-01T18:56:43;96657.75;;;10.38;68.05
76195;BME280;64964;48.694;21.206;2023-04-01T18:59:25;96660.59;;;10.36;67.80
76195;BME280;64964;48.694;21.206;2023-04-01T19:07:45;96660.59;;;10.36;67.76
76195;BME280;64964;48.694;21.206;2023-04-01T19:10:15;96656.97;;;10.37;67.49
76195;BME280;64964;48.694;21.206;2023-04-01T19:15:30;96659.97;;;10.28;67.34
76195;BME280;64964;48.694;21.206;2023-04-01T19:27:28;96681.03;;;10.14;69.15
76195;BME280;64964;48.694;21.206;2023-04-01T19:33:19;96685.09;;;10.10;70.35
76195;BME280;64964;48.694;21.206;2023-04-01T19:35:55;96690.97;;;10.06;69.72
76195;BME280;64964;48.694;21.206;2023-04-01T19:38:37;96694.00;;;10.03;68.89
76195;BME280;64964;48.694;21.206;2023-04-01T19:44:04;96687.44;;;9.85;69.47
76195;BME280;64964;48.694;21.206;2023-04-01T19:46:43;96697.72;;;9.73;70.28
76195;BME280;64964;48.694;21.206;2023-04-01T19:52:00;96699.50;;;9.60;70.51
76195;BME280;64964;48.694;21.206;2023-04-01T19:57:34;96705.75;;;9.52;70.81
76195;BME280;64964;48.694;21.206;2023-04-01T20:00:25;96712.84;;;9.52;70.63
76195;BME280;64964;48.694;21.206;2023-04-01T20:03:03;96711.84;;;9.53;70.30
76195;BME280;64964;48.694;21.206;2023-04-01T20:19:10;96715.63;;;9.37;71.18
76195;BME280;64964;48.694;21.206;2023-04-01T20:21:42;96711.09;;;9.31;71.63
76195;BME280;64964;48.694;21.206;2023-04-01T20:24:24;96717.97;;;9.25;71.64
76195;BME280;64964;48.694;21.206;2023-04-01T20:27:09;96717.53;;;9.21;72.17
76195;BME280;64964;48.694;21.206;2023-04-01T20:38:23;96728.28;;;9.20;73.40
76195;BME280;64964;48.694;21.206;2023-04-01T20:44:17;96724.63;;;9.21;72.27
76195;BME280;64964;48.694;21.206;2023-04-01T20:46:58;96729.47;;;9.17;72.67
76195;BME280;64964;48.694;21.206;2023-04-01T20:49:45;96729.69;;;9.16;72.65
76195;BME280;64964;48.694;21.206;2023-04-01T20:52:41;96736.50;;;9.10;72.93
76195;BME280;64964;48.694;21.206;2023-04-01T20:55:21;96735.25;;;9.06;71.66
76195;BME280;64964;48.694;21.206;2023-04-01T21:00:33;96728.88;;;8.94;72.29
76195;BME280;64964;48.694;21.206;2023-04-01T21:03:23;96730.47;;;8.88;72.53
76195;BME280;64964;48.694;21.206;2023-04-01T21:13:44;96753.00;;;8.69;71.51
76195;BME280;64964;48.694;21.206;2023-04-01T21:17:00;96748.09;;;8.66;71.74
76195;BME280;64964;48.694;21.206;2023-04-01T21:21:58;96757.13;;;8.57;71.90
76195;BME280;64964;48.694;21.206;2023-04-01T21:30:16;96754.63;;;8.49;72.67
76195;BME280;64964;48.694;21.206;2023-04-01T21:46:29;96747.66;;;8.41;72.78
76195;BME280;64964;48.694;21.206;2023-04-01T22:05:31;96756.09;;;8.37;72.14
76195;BME280;64964;48.694;21.206;2023-04-01T22:10:44;96760.38;;;8.38;71.71
76195;BME280;64964;48.694;21.206;2023-04-01T22:13:23;96754.72;;;8.41;71.55
76195;BME280;64964;48.694;21.206;2023-04-01T22:21:24;96748.25;;;8.43;71.99
76195;BME280;64964;48.694;21.206;2023-04-01T22:29:22;96767.50;;;8.44;72.00
76195;BME280;64964;48.694;21.206;2023-04-01T22:40:22;96780.75;;;8.36;71.93
76195;BME280;64964;48.694;21.206;2023-04-01T22:43:10;96785.78;;;8.31;72.25
76195;BME280;64964;48.694;21.206;2023-04-01T22:48:46;96785.06;;;8.22;72.09
76195;BME280;64964;48.694;21.206;2023-04-01T22:56:33;96793.16;;;8.06;71.69
76195;BME280;64964;48.694;21.206;2023-04-01T22:59:29;96798.63;;;8.04;71.71
76195;BME280;64964;48.694;21.206;2023-04-01T23:01:56;96793.53;;;8.03;71.78
76195;BME280;64964;48.694;21.206;2023-04-01T23:04:30;96794.53;;;8.02;71.75
76195;BME280;64964;48.694;21.206;2023-04-01T23:07:00;96788.00;;;7.97;71.87
76195;BME280;64964;48.694;21.206;2023-04-01T23:09:31;96793.44;;;7.96;71.70
76195;BME280;64964;48.694;21.206;2023-04-01T23:12:05;96797.72;;;7.97;71.76
76195;BME280;64964;48.694;21.206;2023-04-01T23:23:09;96792.72;;;7.87;71.98
76195;BME280;64964;48.694;21.206;2023-04-01T23:28:54;96803.81;;;7.83;72.42